Time;durP1;ratioP1;P1;durP2;ratioP2;P2;SDS_P1;SDS_P2;PMS_P1;PMS_P2;Temp;Humidity;BMP_temperature;BMP_pressure;BME280_temperature;BME280_humidity;BME280_pressure;Samples;Min_cycle;Max_cycle;Signal;HPM_P1;HPM_P2
2024/03/04 00:02:02;;;;;;;22.20;8.23;;;;;;;12.37;55.99;100811.75;4984667;28;96627;-89
2024/03/04 00:04:27;;;;;;;18.38;7.80;;;;;;;12.36;55.79;100816.13;4984433;28;96916;-89
2024/03/04 00:06:52;;;;;;;21.98;7.15;;;;;;;12.36;55.77;100821.34;4987042;28;99900;-90
2024/03/04 00:09:18;;;;;;;18.67;8.38;;;;;;;12.35;56.00;100822.25;5001091;28;100241;-89
2024/03/04 00:11:44;;;;;;;20.75;6.90;;;;;;;12.35;56.04;100832.69;4994459;28;96848;-89
2024/03/04 00:14:10;;;;;;;22.70;7.63;;;;;;;12.35;56.25;100827.47;4981879;28;96885;-88
2024/03/04 00:16:42;;;;;;;19.58;8.05;;;;;;;12.36;56.24;100823.97;4965820;28;100081;-89
2024/03/04 00:19:08;;;;;;;18.85;7.18;;;;;;;12.37;56.09;100827.44;4971484;28;100363;-90
2024/03/04 00:21:33;;;;;;;18.65;8.75;;;;;;;12.37;56.22;100824.84;4988507;28;97057;-89
2024/03/04 00:23:59;;;;;;;17.63;6.32;;;;;;;12.35;56.09;100830.09;4993525;28;96822;-89
2024/03/04 00:26:25;;;;;;;17.40;6.82;;;;;;;12.34;56.20;100827.47;4973633;28;100148;-90
2024/03/04 00:28:51;;;;;;;18.88;8.05;;;;;;;12.33;56.20;100821.31;4992584;28;100263;-89
2024/03/04 00:31:17;;;;;;;22.40;7.10;;;;;;;12.33;56.43;100826.56;4988988;28;96826;-89
2024/03/04 00:33:43;;;;;;;16.65;6.50;;;;;;;12.33;56.34;100831.78;4991856;28;96859;-89
2024/03/04 00:36:10;;;;;;;19.38;6.28;;;;;;;12.34;56.51;100833.56;4975069;28;100228;-89
2024/03/04 00:38:35;;;;;;;13.82;5.32;;;;;;;12.37;56.34;100832.69;4984101;28;99777;-90
2024/03/04 00:41:01;;;;;;;21.75;7.72;;;;;;;12.40;56.47;100843.16;4960666;28;96844;-89
2024/03/04 00:43:27;;;;;;;20.13;5.80;;;;;;;12.43;56.73;100837.09;4981145;28;96930;-90
2024/03/04 00:45:53;;;;;;;18.52;6.65;;;;;;;12.43;56.52;100852.78;4983621;28;100313;-90
2024/03/04 00:48:18;;;;;;;19.63;7.10;;;;;;;12.41;56.35;100839.69;4975372;28;100062;-89
2024/03/04 00:50:44;;;;;;;16.00;6.05;;;;;;;12.40;56.56;100837.06;4985660;28;96967;-90
2024/03/04 00:53:09;;;;;;;16.67;6.15;;;;;;;12.41;56.59;100837.09;4972650;28;96897;-89
2024/03/04 00:55:37;;;;;;;15.98;4.97;;;;;;;12.41;56.44;100844.06;4973271;28;100663;-89
2024/03/04 00:58:03;;;;;;;10.82;5.68;;;;;;;12.41;56.44;100842.31;4977613;28;100409;-89
2024/03/04 01:00:28;;;;;;;12.23;4.72;;;;;;;12.40;56.32;100840.56;4975807;28;96795;-89
2024/03/04 01:02:54;;;;;;;15.25;5.78;;;;;;;12.40;56.33;100843.16;4990705;28;96862;-88
2024/03/04 01:05:20;;;;;;;13.98;4.68;;;;;;;12.41;56.37;100839.69;4979895;28;99215;-89
2024/03/04 01:07:45;;;;;;;17.65;5.38;;;;;;;12.41;56.48;100838.84;4991532;28;100042;-89
2024/03/04 01:10:11;;;;;;;11.18;4.20;;;;;;;12.41;56.40;100841.44;4995481;28;96827;-90
2024/03/04 01:12:36;;;;;;;12.23;5.28;;;;;;;12.39;56.50;100846.66;4969634;28;96962;-89
2024/03/04 01:15:02;;;;;;;13.63;4.35;;;;;;;12.38;56.22;100848.38;5047917;27;100779;-89
2024/03/04 01:17:28;;;;;;;11.80;4.03;;;;;;;12.37;56.41;100854.50;4979877;28;98729;-89
2024/03/04 01:19:55;;;;;;;13.55;5.97;;;;;;;12.36;56.44;100851.88;4984826;28;96808;-88
2024/03/04 01:22:21;;;;;;;15.93;5.07;;;;;;;12.37;56.32;100853.59;4992710;28;96726;-90
2024/03/04 01:24:50;;;;;;;12.60;4.95;;;;;;;12.36;56.39;100857.09;4990478;28;100047;-89
2024/03/04 01:27:17;;;;;;;13.35;4.60;;;;;;;12.37;56.32;100851.88;4979014;28;100083;-89
2024/03/04 01:29:43;;;;;;;13.30;4.55;;;;;;;12.37;56.34;100845.75;4998173;28;96656;-90
2024/03/04 01:32:09;;;;;;;13.90;4.45;;;;;;;12.36;56.28;100862.34;4996112;28;97276;-89
2024/03/04 01:34:39;;;;;;;8.68;3.67;;;;;;;12.35;56.36;100851.00;4995433;28;100487;-90
2024/03/04 01:37:09;;;;;;;13.90;5.28;;;;;;;12.35;56.35;100866.72;4980709;28;100579;-89
2024/03/04 01:39:36;;;;;;;14.80;5.07;;;;;;;12.34;56.34;100866.69;4972196;28;96918;-89
2024/03/04 01:42:02;;;;;;;11.27;5.30;;;;;;;12.35;56.39;100876.28;5009969;28;96868;-89
2024/03/04 01:44:37;;;;;;;13.77;4.72;;;;;;;12.36;56.24;100878.03;4977314;28;99864;-91
2024/03/04 01:47:04;;;;;;;;;;;;;;;12.35;56.06;100881.50;4966713;28;100858;-92
2024/03/04 01:49:35;;;;;;;14.25;5.05;;;;;;;12.40;56.12;100873.69;4983782;28;96869;-92
2024/03/04 01:52:01;;;;;;;13.38;5.15;;;;;;;12.40;56.25;100884.16;4988282;28;96977;-91
2024/03/04 01:54:29;;;;;;;13.48;4.32;;;;;;;12.39;56.38;100883.28;4992293;28;99423;-91
2024/03/04 01:56:55;;;;;;;10.50;3.92;;;;;;;12.37;56.16;100901.59;4986458;28;99826;-92
2024/03/04 01:59:22;;;;;;;10.88;4.50;;;;;;;12.34;56.17;100900.69;4987020;28;96874;-91
2024/03/04 02:01:49;;;;;;;12.05;3.80;;;;;;;12.32;56.18;100898.06;4989588;28;96852;-90
2024/03/04 02:04:15;;;;;;;12.85;3.75;;;;;;;12.31;56.21;100909.38;4995411;28;98201;-91
2024/03/04 02:06:41;;;;;;;9.60;4.47;;;;;;;12.30;56.25;100920.72;4981021;28;100289;-91
2024/03/04 02:09:10;;;;;;;11.05;4.93;;;;;;;12.28;56.28;100925.06;4995062;28;96817;-92
2024/03/04 02:11:38;;;;;;;9.80;4.97;;;;;;;12.30;56.29;100931.19;4978748;28;96720;-92
2024/03/04 02:14:04;;;;;;;11.68;3.83;;;;;;;12.29;56.31;100936.41;4988504;28;101061;-93
2024/03/04 02:16:30;;;;;;;11.43;4.25;;;;;;;12.27;55.87;100945.97;4981997;28;100678;-88
2024/03/04 02:18:56;;;;;;;10.38;5.35;;;;;;;12.26;56.33;100950.31;4975047;28;96869;-91
2024/03/04 02:21:22;;;;;;;11.30;4.85;;;;;;;12.26;56.26;100949.44;4995904;28;96893;-91
2024/03/04 02:23:48;;;;;;;16.73;6.25;;;;;;;12.24;56.29;100954.66;4971094;28;99218;-91
2024/03/04 02:26:13;;;;;;;16.05;6.30;;;;;;;12.23;56.18;100952.03;4985800;28;97661;-91
2024/03/04 02:28:39;;;;;;;13.70;5.28;;;;;;;12.22;56.44;100952.91;4980865;28;96901;-91
2024/03/04 02:31:06;;;;;;;17.50;5.70;;;;;;;12.20;56.25;100960.75;4983317;28;96931;-92
2024/03/04 02:33:33;;;;;;;15.18;5.30;;;;;;;12.17;56.56;100948.53;4978038;28;99265;-91
2024/03/04 02:35:59;;;;;;;13.10;4.68;;;;;;;12.17;56.44;100961.63;4968933;28;99110;-91
2024/03/04 02:38:25;;;;;;;14.20;5.93;;;;;;;12.17;56.58;100953.78;4971638;28;96796;-89
2024/03/04 02:40:51;;;;;;;14.73;4.75;;;;;;;12.20;56.76;100960.75;4996489;28;96936;-88
2024/03/04 02:43:17;;;;;;;13.55;5.80;;;;;;;12.21;56.63;100959.91;4988818;28;99944;-89
2024/03/04 02:45:46;;;;;;;16.45;4.80;;;;;;;12.22;56.61;100958.16;4995420;28;97432;-90
2024/03/04 02:48:11;;;;;;;14.30;4.07;;;;;;;12.17;56.50;100963.31;4983703;28;96855;-89
2024/03/04 02:50:38;;;;;;;13.70;4.15;;;;;;;12.14;56.78;100960.72;4983697;28;97004;-93
2024/03/04 02:53:04;;;;;;;12.18;4.00;;;;;;;12.13;56.43;100969.41;4995482;28;100670;-92
2024/03/04 02:55:29;;;;;;;15.98;3.90;;;;;;;12.11;56.68;100972.00;4976902;28;100539;-93
2024/03/04 02:57:55;;;;;;;11.77;4.72;;;;;;;12.11;56.60;100979.84;4996178;28;96881;-91
2024/03/04 03:00:20;;;;;;;14.27;4.40;;;;;;;12.12;56.73;100985.94;4989947;28;96820;-91
2024/03/04 03:02:49;;;;;;;10.75;4.00;;;;;;;12.11;56.62;100992.06;4981591;28;100443;-92
2024/03/04 03:05:15;;;;;;;12.77;5.05;;;;;;;12.06;56.83;100992.00;4994041;28;100196;-90
2024/03/04 03:07:40;;;;;;;12.57;4.95;;;;;;;12.05;56.62;100994.59;4978939;28;96789;-91
2024/03/04 03:10:06;;;;;;;11.02;4.13;;;;;;;12.05;56.76;100999.81;4990233;28;96826;-92
2024/03/04 03:12:32;;;;;;;11.05;4.13;;;;;;;12.05;56.71;101002.44;4997322;28;100281;-92
2024/03/04 03:14:58;;;;;;;13.02;4.32;;;;;;;12.04;56.59;101004.19;4984298;28;100355;-88
2024/03/04 03:17:26;;;;;;;8.90;3.42;;;;;;;12.04;56.41;101000.72;4993910;28;96897;-89
2024/03/04 03:19:52;;;;;;;8.10;3.80;;;;;;;12.02;56.24;101008.53;4989222;28;96882;-88
2024/03/04 03:22:17;;;;;;;7.63;2.50;;;;;;;12.02;56.27;101007.66;4984146;28;100749;-89
2024/03/04 03:24:43;;;;;;;8.15;3.03;;;;;;;12.00;56.11;100999.81;4992403;28;97890;-87
2024/03/04 03:27:10;;;;;;;12.18;3.85;;;;;;;11.99;56.25;100998.03;4999992;28;96829;-87
2024/03/04 03:29:36;;;;;;;10.57;2.95;;;;;;;11.96;56.24;100998.91;4981947;28;96849;-91
2024/03/04 03:32:01;;;;;;;9.43;3.53;;;;;;;11.97;56.29;101005.88;4976799;28;100182;-91
2024/03/04 03:34:27;;;;;;;9.35;3.45;;;;;;;11.96;56.02;101008.47;4997380;28;97911;-91
2024/03/04 03:36:52;;;;;;;6.95;3.17;;;;;;;11.96;56.00;101000.63;4997381;28;96720;-92
2024/03/04 03:39:19;;;;;;;8.77;2.83;;;;;;;11.93;56.27;101006.72;4995400;28;96962;-89
2024/03/04 03:41:45;;;;;;;8.48;3.30;;;;;;;11.92;56.17;100998.84;4974731;28;100333;-90
2024/03/04 03:44:11;;;;;;;7.88;2.90;;;;;;;11.90;56.18;101011.91;4979180;28;99990;-89
2024/03/04 03:46:37;;;;;;;7.25;2.50;;;;;;;11.90;56.33;101024.97;4994162;28;96973;-93
2024/03/04 03:49:02;;;;;;;10.68;3.75;;;;;;;11.90;56.19;101019.75;4988633;28;96987;-92
2024/03/04 03:51:27;;;;;;;12.57;3.97;;;;;;;11.92;56.19;101020.63;5000036;28;100449;-91
2024/03/04 03:53:53;;;;;;;8.98;2.85;;;;;;;11.92;56.06;101023.22;4977713;28;100109;-91
2024/03/04 03:56:19;;;;;;;10.73;3.28;;;;;;;11.92;56.14;101028.47;4989690;28;96850;-92
2024/03/04 03:58:48;;;;;;;11.43;3.60;;;;;;;11.91;56.27;101025.88;5000802;28;96745;-89
2024/03/04 04:01:14;;;;;;;11.20;4.25;;;;;;;11.87;56.16;101035.38;4970185;28;99990;-92
2024/03/04 04:03:40;;;;;;;11.95;5.32;;;;;;;11.84;56.22;101024.88;4975355;28;97529;-91
2024/03/04 04:06:05;;;;;;;15.52;3.63;;;;;;;11.86;56.17;101035.34;4996298;28;96803;-88
2024/03/04 04:08:31;;;;;;;10.60;4.00;;;;;;;11.88;56.30;101037.13;4990082;28;96863;-89
2024/03/04 04:10:56;;;;;;;12.25;4.47;;;;;;;11.88;56.22;101039.72;4974841;28;100635;-89
2024/03/04 04:13:22;;;;;;;10.43;3.58;;;;;;;11.86;56.15;101037.97;4990694;28;98984;-89
2024/03/04 04:15:49;;;;;;;9.93;3.72;;;;;;;11.86;56.10;101038.84;4979465;28;96880;-89
2024/03/04 04:18:15;;;;;;;10.45;3.80;;;;;;;11.86;56.24;101045.81;4971096;28;96888;-89
2024/03/04 04:20:40;;;;;;;8.90;3.47;;;;;;;11.84;56.21;101040.56;4985864;28;100576;-92
2024/03/04 04:23:06;;;;;;;10.60;3.20;;;;;;;11.85;56.19;101050.13;4963538;28;100194;-91
2024/03/04 04:25:32;;;;;;;13.65;4.80;;;;;;;11.85;56.15;101044.91;4998590;28;96731;-92
2024/03/04 04:27:59;;;;;;;9.88;4.00;;;;;;;11.85;56.27;101050.13;4976573;28;96660;-92
2024/03/04 04:30:24;;;;;;;7.40;3.63;;;;;;;11.85;56.27;101051.88;4987569;28;100363;-90
2024/03/04 04:32:50;;;;;;;7.68;3.92;;;;;;;11.84;56.10;101056.25;4987163;28;100237;-91
2024/03/04 04:35:15;;;;;;;8.00;4.10;;;;;;;11.84;56.02;101056.25;4973662;28;96914;-89
2024/03/04 04:37:44;;;;;;;10.13;3.45;;;;;;;11.82;56.03;101066.69;4991440;28;96834;-87
2024/03/04 04:40:10;;;;;;;10.75;4.07;;;;;;;11.81;56.42;101066.66;4985131;28;99865;-88
2024/03/04 04:42:36;;;;;;;9.25;3.45;;;;;;;11.82;56.17;101064.06;4987111;28;101122;-88
2024/03/04 04:45:01;;;;;;;9.55;3.63;;;;;;;11.84;56.26;101071.06;4978771;28;97285;-88
2024/03/04 04:47:28;;;;;;;14.48;3.33;;;;;;;11.84;56.27;101066.69;5001471;28;96793;-91
2024/03/04 04:49:53;;;;;;;7.20;4.07;;;;;;;11.87;56.35;101071.06;4990271;28;100312;-91
2024/03/04 04:52:19;;;;;;;14.25;4.50;;;;;;;11.91;56.24;101080.75;4986666;28;100662;-90
2024/03/04 04:54:44;;;;;;;10.30;4.60;;;;;;;11.89;56.14;101088.53;5006662;28;96753;-90
2024/03/04 04:57:10;;;;;;;9.15;4.43;;;;;;;11.84;56.09;101073.69;4975283;28;96906;-91
2024/03/04 04:59:35;;;;;;;10.48;4.35;;;;;;;11.84;55.94;101084.13;4989008;28;100877;-90
2024/03/04 05:02:01;;;;;;;8.50;4.13;;;;;;;11.83;56.20;101085.84;5008589;28;98293;-92
2024/03/04 05:04:27;;;;;;;10.65;3.30;;;;;;;11.83;56.33;101096.28;4974729;28;96807;-91
2024/03/04 05:06:52;;;;;;;13.63;4.13;;;;;;;11.84;56.21;101091.97;4974843;28;96844;-87
2024/03/04 05:09:18;;;;;;;8.10;3.35;;;;;;;11.85;56.18;101091.09;4982827;28;100447;-89
2024/03/04 05:11:44;;;;;;;8.38;3.53;;;;;;;11.84;56.33;101086.75;4982123;28;98681;-90
2024/03/04 05:14:09;;;;;;;9.25;3.20;;;;;;;11.84;56.21;101089.34;4993084;28;96773;-89
2024/03/04 05:16:35;;;;;;;6.30;3.20;;;;;;;11.84;56.03;101103.28;4980999;28;96830;-89
2024/03/04 05:19:02;;;;;;;9.43;3.47;;;;;;;11.83;56.11;101093.69;4988721;28;96710;-88
2024/03/04 05:21:28;;;;;;;9.15;3.10;;;;;;;11.82;56.12;101094.56;4978110;28;99280;-88
2024/03/04 05:23:53;;;;;;;9.27;3.13;;;;;;;11.81;56.19;101087.56;4996282;28;96816;-89
2024/03/04 05:26:18;;;;;;;7.95;2.38;;;;;;;11.80;56.11;101091.06;4990077;28;96730;-92
2024/03/04 05:28:44;;;;;;;6.03;2.42;;;;;;;11.78;56.04;101090.13;4994296;28;98817;-92
2024/03/04 05:31:10;;;;;;;10.13;2.83;;;;;;;11.77;55.99;101089.28;4993921;28;99816;-91
2024/03/04 05:33:36;;;;;;;7.25;3.05;;;;;;;11.77;56.40;101091.88;4984960;28;96975;-91
2024/03/04 05:36:08;;;;;;;6.72;2.22;;;;;;;11.75;56.14;101098.84;4989241;28;96957;-89
2024/03/04 05:38:34;;;;;;;5.53;2.80;;;;;;;11.75;55.88;101111.03;4989462;28;100687;-91
2024/03/04 05:40:59;;;;;;;6.88;1.98;;;;;;;11.71;55.73;101107.50;4992858;28;97443;-92
2024/03/04 05:43:25;;;;;;;7.05;2.55;;;;;;;11.69;55.88;101108.31;4997334;28;96794;-91
2024/03/04 05:45:51;;;;;;;5.40;2.33;;;;;;;11.67;56.25;101110.91;4978072;28;96864;-91
2024/03/04 05:48:19;;;;;;;3.80;1.88;;;;;;;11.67;56.15;101120.50;5004333;28;97848;-93
2024/03/04 05:50:45;;;;;;;10.55;2.60;;;;;;;11.67;56.06;101121.38;4981558;28;100150;-90
2024/03/04 05:53:12;;;;;;;8.18;2.33;;;;;;;11.63;56.01;101123.06;4985944;28;96889;-87
2024/03/04 05:55:38;;;;;;;6.40;1.90;;;;;;;11.62;55.88;101134.41;4984803;28;96735;-88
2024/03/04 05:58:03;;;;;;;9.52;2.28;;;;;;;11.59;56.15;101134.34;4983232;28;100351;-89
2024/03/04 06:00:32;;;;;;;5.22;2.60;;;;;;;11.56;56.01;101133.44;4974506;28;100305;-89
2024/03/04 06:02:57;;;;;;;4.07;1.65;;;;;;;11.55;56.09;101137.78;4983980;28;96893;-89
2024/03/04 06:05:23;;;;;;;8.15;2.13;;;;;;;11.54;56.14;101143.84;4993430;28;96942;-89
2024/03/04 06:07:48;;;;;;;4.78;2.53;;;;;;;11.51;56.17;101153.38;4979784;28;100252;-90
2024/03/04 06:10:15;;;;;;;6.25;3.00;;;;;;;11.50;56.12;101155.13;4987301;28;97670;-90
2024/03/04 06:12:42;;;;;;;6.97;2.35;;;;;;;11.51;56.25;101158.59;4987340;28;96773;-89
2024/03/04 06:15:10;;;;;;;5.25;2.15;;;;;;;11.49;56.15;101157.72;4975775;28;97099;-88
2024/03/04 06:17:36;;;;;;;6.55;3.00;;;;;;;11.48;56.30;101161.16;4967694;28;100522;-88
2024/03/04 06:20:03;;;;;;;10.15;2.30;;;;;;;11.47;56.21;101172.50;4966667;28;100463;-89
2024/03/04 06:22:30;;;;;;;9.32;1.75;;;;;;;11.43;56.18;101169.81;4995924;28;96779;-89
2024/03/04 06:24:55;;;;;;;6.10;1.92;;;;;;;11.43;56.28;101169.81;4993868;28;96833;-90
2024/03/04 06:27:22;;;;;;;9.45;2.83;;;;;;;11.42;56.60;101177.63;4965640;28;99852;-89
2024/03/04 06:29:48;;;;;;;4.68;1.83;;;;;;;11.41;56.28;101176.78;4971249;28;99964;-88
2024/03/04 06:32:13;;;;;;;7.72;2.03;;;;;;;11.41;56.31;101191.56;4996752;28;97036;-89
2024/03/04 06:34:40;;;;;;;6.85;2.60;;;;;;;11.41;56.37;101187.22;4991944;28;96736;-87
2024/03/04 06:37:05;;;;;;;10.88;3.28;;;;;;;11.42;56.39;101188.09;4984659;28;99230;-91
2024/03/04 06:39:33;;;;;;;6.93;2.05;;;;;;;11.42;56.45;101199.41;4960074;28;100172;-92
2024/03/04 06:41:59;;;;;;;6.53;2.10;;;;;;;11.44;56.45;101202.03;4971067;28;96775;-92
2024/03/04 06:44:24;;;;;;;7.50;2.45;;;;;;;11.46;56.60;101189.00;4983133;28;96815;-91
2024/03/04 06:46:50;;;;;;;4.75;2.05;;;;;;;11.49;56.55;101200.38;4983149;28;100221;-91
2024/03/04 06:49:16;;;;;;;9.23;2.95;;;;;;;11.51;56.47;101200.41;4979896;28;100033;-91
2024/03/04 06:51:41;;;;;;;6.85;2.60;;;;;;;11.53;56.66;101199.59;4997437;28;96788;-91
2024/03/04 06:54:10;;;;;;;5.47;2.80;;;;;;;11.56;56.67;101198.75;5000718;28;96931;-92
2024/03/04 06:56:36;;;;;;;8.63;2.65;;;;;;;11.59;56.69;101194.44;4990654;28;100488;-91
2024/03/04 06:59:02;;;;;;;7.28;1.70;;;;;;;11.65;56.60;101195.38;4986963;28;98777;-94
2024/03/04 07:01:28;;;;;;;7.45;1.80;;;;;;;11.67;56.61;101197.16;4988301;28;96647;-92
2024/03/04 07:03:55;;;;;;;7.30;2.60;;;;;;;11.70;56.45;101202.41;4992992;28;96832;-93
2024/03/04 07:06:23;;;;;;;6.70;1.85;;;;;;;11.71;56.69;101187.63;4993859;28;99332;-91
2024/03/04 07:08:49;;;;;;;8.82;2.78;;;;;;;11.73;56.56;101184.19;4975836;28;100053;-91
2024/03/04 07:11:17;;;;;;;5.35;2.10;;;;;;;11.78;56.54;101192.06;4984218;28;96850;-93
2024/03/04 07:13:46;;;;;;;6.97;1.83;;;;;;;11.78;56.55;101198.19;4983162;28;96867;-92
2024/03/04 07:16:12;;;;;;;8.65;2.15;;;;;;;11.82;56.75;101189.53;4986600;28;99260;-95
2024/03/04 07:18:38;;;;;;;9.82;3.13;;;;;;;11.86;56.68;101189.56;4990583;28;99776;-93
2024/03/04 07:21:08;;;;;;;7.20;1.92;;;;;;;11.91;56.42;101190.53;5007777;28;96578;-94
2024/03/04 07:23:34;;;;;;;5.90;2.20;;;;;;;11.95;56.45;101184.47;5009035;28;96334;-95
2024/03/04 07:26:06;;;;;;;6.32;1.98;;;;;;;11.97;56.52;101183.63;4990241;28;100704;-94
2024/03/04 07:28:32;;;;;;;13.35;2.60;;;;;;;12.00;56.51;101185.41;4992799;28;99145;-94
2024/03/04 07:30:58;;;;;;;6.47;1.70;;;;;;;12.01;56.44;101192.38;4992766;28;96683;-94
2024/03/04 07:33:49;;;;;;;4.93;1.60;;;;;;;12.02;56.54;101188.94;4992089;28;96601;-96
2024/03/04 07:36:24;;;;;;;4.32;2.00;;;;;;;12.04;56.46;101195.03;5018128;28;100361;-94
2024/03/04 07:38:50;;;;;;;5.80;1.48;;;;;;;12.08;56.51;101188.97;5006706;28;98852;-94
2024/03/04 07:41:16;;;;;;;6.97;1.63;;;;;;;12.19;57.07;101199.56;5007701;28;96797;-95
2024/03/04 07:43:43;;;;;;;5.55;2.00;;;;;;;12.34;56.97;101210.22;4990860;28;96854;-96
2024/03/04 07:46:09;;;;;;;4.85;1.33;;;;;;;12.48;56.84;101201.66;4984866;28;99231;-93
2024/03/04 07:48:35;;;;;;;5.70;2.05;;;;;;;12.57;56.58;101210.47;4982762;28;100201;-93
2024/03/04 07:51:00;;;;;;;9.13;2.65;;;;;;;12.67;56.51;101213.16;4978921;28;96732;-93
2024/03/04 07:53:26;;;;;;;7.10;2.75;;;;;;;12.75;56.42;101215.00;4999469;28;96931;-93
2024/03/04 07:55:51;;;;;;;8.07;2.80;;;;;;;12.80;55.98;101214.16;4984154;28;100323;-93
2024/03/04 07:58:17;;;;;;;5.75;2.92;;;;;;;12.82;55.66;101210.72;4988926;28;99048;-93
2024/03/04 08:00:46;;;;;;;5.68;2.47;;;;;;;12.83;55.62;101207.22;4978622;28;96700;-94
2024/03/04 08:03:11;;;;;;;9.70;2.53;;;;;;;12.82;55.56;101223.78;4987573;28;96890;-93
2024/03/04 08:05:37;;;;;;;8.40;2.30;;;;;;;12.83;55.67;101225.53;4976128;28;99381;-91
2024/03/04 08:08:02;;;;;;;9.40;2.80;;;;;;;12.86;55.91;101224.69;4974989;28;100129;-91
2024/03/04 08:10:28;;;;;;;6.75;2.85;;;;;;;12.91;55.85;101230.84;4992924;28;96799;-92
2024/03/04 08:12:54;;;;;;;5.70;1.70;;;;;;;12.98;55.67;101231.75;4978209;28;96835;-92
2024/03/04 08:15:19;;;;;;;7.75;2.38;;;;;;;13.01;55.49;101237.03;4978852;28;99235;-92
2024/03/04 08:17:45;;;;;;;7.25;2.70;;;;;;;13.03;55.30;101240.53;4979815;28;100567;-91
2024/03/04 08:20:11;;;;;;;5.30;1.77;;;;;;;13.02;55.23;101241.44;4974573;28;96691;-92
2024/03/04 08:22:36;;;;;;;5.20;2.17;;;;;;;13.05;55.18;101247.56;4989637;28;96882;-92
2024/03/04 08:25:03;;;;;;;5.63;1.55;;;;;;;13.18;55.94;101252.91;4981902;28;99853;-92
2024/03/04 08:27:29;;;;;;;5.95;2.35;;;;;;;13.38;55.83;101259.22;4983220;28;99259;-92
2024/03/04 08:29:54;;;;;;;6.63;1.40;;;;;;;13.50;55.52;101261.91;4982834;28;96839;-90
2024/03/04 08:32:20;;;;;;;5.13;1.95;;;;;;;13.58;55.32;101259.34;4978054;28;97001;-92
2024/03/04 08:35:01;;;;;;;6.65;2.80;;;;;;;13.73;55.36;101265.59;4983874;28;99160;-94
2024/03/04 08:37:27;;;;;;;5.60;2.67;;;;;;;13.86;55.52;101265.63;4958435;28;98653;-95
2024/03/04 08:39:54;;;;;;;6.53;2.45;;;;;;;14.00;54.72;101268.34;4973261;28;96730;-93
2024/03/04 08:42:23;;;;;;;6.53;2.47;;;;;;;14.04;53.92;101269.25;4991950;28;96931;-92
2024/03/04 08:44:48;;;;;;;6.35;2.53;;;;;;;13.97;53.43;101268.31;4980679;28;99326;-93
2024/03/04 08:47:14;;;;;;;7.90;3.15;;;;;;;13.92;53.28;101264.81;4976850;28;98575;-92
2024/03/04 08:49:39;;;;;;;4.47;2.65;;;;;;;13.85;53.03;101266.53;4990883;28;96856;-92
2024/03/04 08:52:05;;;;;;;9.57;3.03;;;;;;;13.81;53.18;101271.72;4980937;28;96919;-93
2024/03/04 08:54:36;;;;;;;7.57;2.20;;;;;;;13.76;52.88;101271.72;4996263;28;98899;-93
2024/03/04 08:57:02;;;;;;;6.15;3.35;;;;;;;13.72;53.55;101267.31;4974227;28;100595;-92
2024/03/04 08:59:28;;;;;;;8.00;2.88;;;;;;;13.78;53.81;101262.13;4998582;28;96817;-91
2024/03/04 09:01:53;;;;;;;10.20;3.17;;;;;;;13.93;54.04;101260.44;4986430;28;96829;-92
2024/03/04 09:04:19;;;;;;;6.22;2.40;;;;;;;14.03;53.63;101257.00;4987928;28;99270;-92
2024/03/04 09:06:45;;;;;;;6.28;2.47;;;;;;;14.06;53.41;101250.03;4981520;28;100562;-92
2024/03/04 09:09:11;;;;;;;8.52;3.08;;;;;;;14.10;53.00;101253.53;4966175;28;96709;-92
2024/03/04 09:11:36;;;;;;;6.03;2.72;;;;;;;14.09;52.39;101260.50;4991000;28;96878;-91
2024/03/04 09:14:02;;;;;;;8.30;2.05;;;;;;;14.00;52.17;101260.47;4983867;28;100825;-91
2024/03/04 09:16:28;;;;;;;6.05;2.60;;;;;;;13.96;52.38;101255.22;4994143;28;99238;-91
2024/03/04 09:18:53;;;;;;;5.93;1.98;;;;;;;13.90;52.21;101256.94;4994172;28;96625;-92
2024/03/04 09:21:19;;;;;;;7.75;2.42;;;;;;;13.82;52.25;101253.38;4978114;28;96972;-91
2024/03/04 09:23:47;;;;;;;6.10;1.90;;;;;;;13.81;52.41;101251.63;4991423;28;100493;-92
2024/03/04 09:26:13;;;;;;;7.20;2.10;;;;;;;13.85;52.84;101248.19;5001738;28;99203;-91
2024/03/04 09:28:39;;;;;;;7.57;2.25;;;;;;;13.93;52.71;101239.47;4967950;28;96889;-92
2024/03/04 09:31:05;;;;;;;5.00;3.22;;;;;;;13.99;52.80;101244.72;4986486;28;96651;-91
2024/03/04 09:33:30;;;;;;;5.00;1.77;;;;;;;14.05;52.98;101240.41;4961558;28;100786;-90
2024/03/04 09:35:56;;;;;;;5.57;2.92;;;;;;;14.11;52.64;101246.53;4977486;28;99937;-91
2024/03/04 09:38:21;;;;;;;7.53;2.20;;;;;;;14.14;52.52;101243.94;5002931;28;96753;-92
2024/03/04 09:40:51;;;;;;;9.30;2.70;;;;;;;14.18;52.37;101248.31;4980630;28;96928;-92
2024/03/04 09:43:19;;;;;;;5.13;2.63;;;;;;;14.21;52.01;101248.34;4988644;28;100320;-92
2024/03/04 09:45:45;;;;;;;7.55;3.05;;;;;;;14.25;52.19;101253.59;5006283;28;99168;-91
2024/03/04 09:48:12;;;;;;;7.97;1.65;;;;;;;14.27;51.66;101251.84;4995289;28;96692;-91
2024/03/04 09:50:37;;;;;;;2.83;1.30;;;;;;;14.27;51.76;101249.22;4996762;28;96734;-91
2024/03/04 09:53:03;;;;;;;4.65;2.20;;;;;;;14.35;52.09;101240.50;4992520;28;96783;-91
2024/03/04 09:55:29;;;;;;;7.25;2.25;;;;;;;14.44;52.10;101253.69;4994909;28;97795;-92
2024/03/04 09:57:55;;;;;;;11.63;2.38;;;;;;;14.52;51.78;101254.56;4986337;28;96749;-91
2024/03/04 10:00:22;;;;;;;5.30;2.60;;;;;;;14.63;51.86;101249.38;4969645;28;96867;-92
2024/03/04 10:02:48;;;;;;;4.40;2.00;;;;;;;14.71;51.70;101254.66;4969915;28;100315;-92
2024/03/04 10:05:17;;;;;;;6.10;2.58;;;;;;;14.76;51.27;101269.53;4962980;28;100451;-91
2024/03/04 10:07:45;;;;;;;3.25;2.70;;;;;;;14.73;50.61;101261.66;4987393;28;96748;-91
2024/03/04 10:10:12;;;;;;;4.93;2.03;;;;;;;14.67;50.82;101266.91;4989656;28;96975;-91
2024/03/04 10:12:37;;;;;;;2.80;2.22;;;;;;;14.62;50.67;101269.50;5000795;28;100006;-91
2024/03/04 10:15:03;;;;;;;4.55;1.60;;;;;;;14.56;50.31;101261.59;4978104;28;98698;-92
2024/03/04 10:17:29;;;;;;;4.45;2.75;;;;;;;14.52;50.83;101262.44;4987379;28;96803;-91
2024/03/04 10:20:02;;;;;;;3.28;1.42;;;;;;;14.54;50.73;101265.94;4992239;28;96837;-91
2024/03/04 10:22:39;;;;;;;4.22;2.10;;;;;;;14.58;51.01;101272.09;4985041;28;100197;-92
2024/03/04 10:25:08;;;;;;;4.45;2.20;;;;;;;14.68;50.78;101270.38;4979262;28;99046;-94
2024/03/04 10:27:38;;;;;;;4.40;1.40;;;;;;;14.83;51.00;101273.03;4980411;28;96801;-88
2024/03/04 10:30:27;;;;;;;5.85;3.00;;;;;;;14.93;50.79;101280.06;4977013;28;96820;-89
2024/03/04 10:33:03;;;;;;;4.45;1.80;;;;;;;15.01;50.11;101283.59;4978431;28;100223;-90
2024/03/04 10:35:29;;;;;;;3.60;1.70;;;;;;;15.04;50.28;101285.31;4978240;28;100481;-90
2024/03/04 10:37:59;;;;;;;7.32;2.40;;;;;;;15.08;50.55;101278.31;4977634;28;96669;-87
2024/03/04 10:40:25;;;;;;;4.57;1.63;;;;;;;15.18;50.34;101282.72;4993257;28;96923;-90
2024/03/04 10:42:51;;;;;;;5.03;1.40;;;;;;;15.27;50.45;101287.09;4980012;28;100639;-90
2024/03/04 10:45:17;;;;;;;5.25;1.95;;;;;;;15.45;51.09;101276.56;4975257;28;99885;-88
2024/03/04 10:47:45;;;;;;;2.80;1.40;;;;;;;15.74;50.82;101283.53;4990484;28;96638;-90
2024/03/04 10:50:15;;;;;;;4.80;2.40;;;;;;;16.05;50.11;101281.75;4990775;28;96982;-89
2024/03/04 10:52:41;;;;;;;3.25;1.30;;;;;;;16.26;49.85;101287.84;4992853;28;100057;-91
2024/03/04 10:55:07;;;;;;;4.22;2.33;;;;;;;16.33;49.27;101276.41;4977456;28;99102;-89
2024/03/04 10:57:34;;;;;;;5.55;3.00;;;;;;;16.40;48.47;101278.13;4991212;28;96803;-89
2024/03/04 11:00:17;;;;;;;4.07;2.10;;;;;;;16.40;47.79;101282.50;4994613;28;96866;-89
2024/03/04 11:03:09;;;;;;;4.43;2.22;;;;;;;16.30;47.58;101281.69;4994335;28;98057;-90
2024/03/04 11:05:38;;;;;;;5.13;1.98;;;;;;;16.23;47.93;101275.56;5003600;28;97631;-90
2024/03/04 11:08:15;;;;;;;4.57;2.22;;;;;;;16.29;48.37;101280.81;4990051;28;96832;-90
2024/03/04 11:10:50;;;;;;;4.50;2.78;;;;;;;16.61;48.58;101279.75;4988380;28;96874;-90
2024/03/04 11:13:33;;;;;;;5.97;2.60;;;;;;;17.06;48.77;101272.50;4996951;28;99198;-89
2024/03/04 11:16:23;;;;;;;4.10;1.95;;;;;;;17.43;47.74;101273.94;4981677;28;100723;-89
2024/03/04 11:19:07;;;;;;;4.20;2.40;;;;;;;17.76;47.24;101272.75;4985059;28;96760;-89